createdAt,value
2018-11-02T00:00:54.291Z,29.80
2018-11-02T00:05:47.918Z,30.52
2018-11-02T00:10:42.245Z,28.15
2018-11-02T00:15:36.324Z,28.87
2018-11-02T00:20:29.459Z,28.47
2018-11-02T00:25:23.631Z,28.73
2018-11-02T00:30:17.425Z,29.25
2018-11-02T00:35:10.849Z,27.50
2018-11-02T00:40:05.732Z,27.30
2018-11-02T00:44:58.955Z,27.55
2018-11-02T00:49:52.090Z,26.97
2018-11-02T00:54:45.974Z,26.05
2018-11-02T00:59:39.649Z,27.05
2018-11-02T01:04:33.030Z,24.43
2018-11-02T01:09:26.352Z,24.70
2018-11-02T01:14:19.574Z,25.43
2018-11-02T01:19:14.295Z,25.65
2018-11-02T01:24:07.602Z,27.67
2018-11-02T01:29:00.774Z,26.80
2018-11-02T01:33:56.278Z,26.87
2018-11-02T01:38:49.858Z,24.35
2018-11-02T01:43:43.102Z,27.35
2018-11-02T01:48:37.052Z,27.05
2018-11-02T01:53:30.417Z,22.10
2018-11-02T01:58:23.561Z,20.62
2018-11-02T02:03:16.701Z,21.02
2018-11-02T02:08:12.589Z,21.77
2018-11-02T02:13:07.207Z,23.62
2018-11-02T02:18:01.268Z,19.55
2018-11-02T02:22:58.414Z,18.80
2018-11-02T02:27:52.873Z,21.70
2018-11-02T02:32:46.299Z,19.52
2018-11-02T02:37:40.574Z,20.88
2018-11-02T02:42:35.201Z,23.40
2018-11-02T02:47:29.515Z,20.90
2018-11-02T02:52:22.925Z,19.85
2018-11-02T02:57:16.526Z,20.92
2018-11-02T03:02:10.719Z,22.22
2018-11-02T03:07:06.952Z,21.93
2018-11-02T03:12:00.158Z,20.20
2018-11-02T03:16:53.594Z,21.05
2018-11-02T03:21:47.488Z,20.30
2018-11-02T03:26:40.709Z,20.17
2018-11-02T03:31:34.194Z,19.50
2018-11-02T03:36:27.708Z,19.52
2018-11-02T03:41:21.346Z,18.05
2018-11-02T03:46:17.108Z,19.90
2018-11-02T03:51:10.305Z,19.55
2018-11-02T03:56:03.855Z,19.15
2018-11-02T04:00:57.040Z,19.92
2018-11-02T04:05:51.699Z,17.48
2018-11-02T04:10:44.948Z,17.95
2018-11-02T04:15:38.215Z,18.80
2018-11-02T04:20:31.574Z,19.07
2018-11-02T04:25:25.238Z,20.02
2018-11-02T04:30:18.580Z,20.10
2018-11-02T04:35:11.717Z,19.52
2018-11-02T04:40:05.906Z,19.55
2018-11-02T04:44:59.227Z,20.57
2018-11-02T04:49:52.403Z,23.95
2018-11-02T04:54:45.589Z,22.20
2018-11-02T04:59:38.796Z,24.10
2018-11-02T05:04:32.047Z,24.15
2018-11-02T05:09:25.350Z,26.10
2018-11-02T05:14:18.573Z,29.42
2018-11-02T05:19:11.773Z,28.55
2018-11-02T05:24:05.421Z,26.30
2018-11-02T05:28:58.698Z,24.07
2018-11-02T05:33:51.852Z,25.20
2018-11-02T05:38:45.012Z,21.05
2018-11-02T05:43:38.256Z,20.92
2018-11-02T05:48:31.515Z,21.80
2018-11-02T05:53:24.827Z,24.55
2018-11-02T05:58:18.097Z,22.73
2018-11-02T06:03:12.464Z,24.60
2018-11-02T06:08:06.019Z,26.23
2018-11-02T06:12:59.400Z,37.50
2018-11-02T06:17:52.716Z,22.48
2018-11-02T06:22:45.950Z,22.48
2018-11-02T06:27:40.269Z,22.25
2018-11-02T06:32:33.684Z,26.73
2018-11-02T06:37:26.913Z,46.80
2018-11-02T06:42:20.226Z,37.80
2018-11-02T06:47:13.540Z,37.35
2018-11-02T06:52:06.825Z,38.08
2018-11-02T06:57:00.276Z,35.52
2018-11-02T07:01:53.664Z,38.00
2018-11-02T07:06:47.003Z,38.38
2018-11-02T07:11:40.279Z,32.38
2018-11-02T07:16:33.567Z,33.28
2018-11-02T07:21:26.711Z,28.77
2018-11-02T07:26:19.965Z,29.32
2018-11-02T07:31:13.108Z,30.32
2018-11-02T07:36:06.417Z,27.70
2018-11-02T07:40:59.605Z,28.00
2018-11-02T07:45:52.827Z,27.32
2018-11-02T07:50:46.156Z,27.95
2018-11-02T07:55:39.436Z,26.05
2018-11-02T08:00:32.711Z,26.90
2018-11-02T08:05:25.989Z,25.95
2018-11-02T08:10:19.123Z,29.77
2018-11-02T08:15:13.414Z,24.50
2018-11-02T08:20:07.002Z,24.82
2018-11-02T08:25:00.182Z,24.47
2018-11-02T08:29:54.244Z,24.37
2018-11-02T08:34:47.782Z,23.32
2018-11-02T08:39:41.134Z,24.80
2018-11-02T08:44:34.457Z,28.25
2018-11-02T08:49:27.782Z,29.02
2018-11-02T08:54:21.003Z,28.40
2018-11-02T08:59:14.545Z,27.55
2018-11-02T09:04:07.693Z,28.35
2018-11-02T09:09:01.004Z,26.85
2018-11-02T09:13:54.364Z,28.40
2018-11-02T09:18:47.613Z,27.02
2018-11-02T09:23:40.763Z,26.42
2018-11-02T09:28:34.577Z,26.70
2018-11-02T09:33:27.771Z,24.82
2018-11-02T09:38:21.010Z,22.55
2018-11-02T09:43:15.274Z,23.05
2018-11-02T09:48:08.582Z,26.60
2018-11-02T09:53:05.472Z,24.30
2018-11-02T09:57:58.710Z,26.48
2018-11-02T10:02:52.672Z,24.87
2018-11-02T10:07:46.384Z,23.92
2018-11-02T10:12:40.722Z,25.13
2018-11-02T10:17:34.725Z,22.62
2018-11-02T10:22:29.152Z,22.15
2018-11-02T10:27:23.818Z,21.27
2018-11-02T10:32:26.386Z,20.95
2018-11-02T10:37:20.195Z,21.12
2018-11-02T10:42:14.420Z,21.02
2018-11-02T10:47:09.105Z,19.20
2018-11-02T10:52:03.938Z,15.85
2018-11-02T10:56:57.788Z,16.65
2018-11-02T11:02:00.797Z,16.10
2018-11-02T11:06:54.468Z,15.68
2018-11-02T11:11:49.439Z,15.20
2018-11-02T11:16:44.028Z,13.75
2018-11-02T11:21:41.697Z,13.75
2018-11-02T11:26:37.205Z,13.43
2018-11-02T11:31:31.423Z,14.40
2018-11-02T11:36:26.448Z,11.08
2018-11-02T11:41:20.259Z,12.18
2018-11-02T11:46:13.930Z,12.82
2018-11-02T11:51:07.946Z,11.35
2018-11-02T11:56:01.851Z,9.85
2018-11-02T12:00:56.705Z,9.78
2018-11-02T12:05:50.308Z,9.35
2018-11-02T12:10:44.122Z,9.15
2018-11-02T12:15:38.591Z,8.43
2018-11-02T12:20:32.763Z,7.00
2018-11-02T12:25:27.617Z,7.30
2018-11-02T12:30:21.964Z,7.40
2018-11-02T12:35:16.809Z,7.47
2018-11-02T12:40:12.620Z,6.70
2018-11-02T12:45:07.251Z,6.58
2018-11-02T12:50:00.638Z,6.35
2018-11-02T12:54:56.608Z,7.08
2018-11-02T12:59:49.830Z,6.17
2018-11-02T13:04:45.590Z,6.92
2018-11-02T13:09:38.868Z,6.78
2018-11-02T13:14:32.091Z,7.12
2018-11-02T13:19:25.322Z,7.20
2018-11-02T13:24:18.642Z,6.72
2018-11-02T13:29:12.836Z,7.58
2018-11-02T13:34:06.053Z,6.65
2018-11-02T13:38:59.285Z,6.90
2018-11-02T13:43:52.572Z,6.50
2018-11-02T13:48:45.772Z,6.50
2018-11-02T13:53:39.022Z,6.12
2018-11-02T13:58:32.185Z,6.08
2018-11-02T14:03:25.549Z,6.40
2018-11-02T14:08:18.675Z,7.60
2018-11-02T14:13:12.012Z,7.22
2018-11-02T14:18:05.312Z,6.85
2018-11-02T14:22:58.612Z,7.03
2018-11-02T14:27:52.117Z,7.60
2018-11-02T14:32:46.234Z,8.90
2018-11-02T14:37:40.047Z,7.47
2018-11-02T14:42:33.408Z,6.95
2018-11-02T14:47:26.613Z,6.30
2018-11-02T14:52:19.941Z,7.35
2018-11-02T14:57:13.197Z,10.15
2018-11-02T15:02:06.812Z,6.70
2018-11-02T15:07:00.057Z,7.55
2018-11-02T15:11:54.630Z,7.17
2018-11-02T15:16:47.906Z,7.72
2018-11-02T15:21:41.347Z,7.58
2018-11-02T15:26:34.803Z,7.50
2018-11-02T15:31:27.926Z,8.00
2018-11-02T15:36:21.331Z,7.40
2018-11-02T15:41:14.827Z,7.95
2018-11-02T15:46:08.131Z,7.28
2018-11-02T15:51:01.405Z,8.45
2018-11-02T15:55:54.890Z,9.70
2018-11-02T16:00:48.653Z,10.38
2018-11-02T16:05:43.064Z,11.20
2018-11-02T16:10:36.798Z,12.25
2018-11-02T16:15:30.721Z,11.80
2018-11-02T16:20:23.971Z,14.15
2018-11-02T16:25:18.021Z,15.18
2018-11-02T16:30:11.727Z,16.10
2018-11-02T16:35:05.522Z,17.87
2018-11-02T16:39:58.884Z,16.95
2018-11-02T16:44:53.243Z,19.20
2018-11-02T16:49:47.381Z,22.55
2018-11-02T16:54:40.748Z,22.40
2018-11-02T16:59:34.766Z,26.55
2018-11-02T17:04:29.054Z,23.30
2018-11-02T17:09:22.798Z,17.12
2018-11-02T17:14:17.661Z,18.30
2018-11-02T17:19:11.559Z,21.73
2018-11-02T17:24:04.878Z,16.45
2018-11-02T17:28:58.500Z,18.62
2018-11-02T17:33:52.369Z,21.90
2018-11-02T17:38:45.639Z,19.35
2018-11-02T17:43:39.522Z,19.20
2018-11-02T17:48:34.067Z,18.90
2018-11-02T17:53:27.588Z,20.65
2018-11-02T17:58:23.029Z,24.40
2018-11-02T18:03:18.886Z,20.65
2018-11-02T18:08:13.212Z,18.73
2018-11-02T18:13:09.430Z,22.85
2018-11-02T18:18:05.766Z,18.35
2018-11-02T18:22:59.049Z,20.43
2018-11-02T18:27:57.552Z,22.77
2018-11-02T18:32:51.689Z,24.57
2018-11-02T18:37:45.223Z,21.27
2018-11-02T18:42:40.866Z,24.82
2018-11-02T18:47:39.715Z,26.62
2018-11-02T18:52:33.709Z,21.17
2018-11-02T18:57:28.360Z,20.40
2018-11-02T19:02:23.173Z,19.48
2018-11-02T19:07:17.355Z,19.20
2018-11-02T19:12:10.814Z,16.45
2018-11-02T19:17:06.311Z,16.60
2018-11-02T19:22:02.217Z,17.12
2018-11-02T19:26:55.862Z,18.70
2018-11-02T19:31:51.014Z,19.85
2018-11-02T19:36:46.706Z,22.67
2018-11-02T19:41:41.190Z,16.12
2018-11-02T19:46:36.641Z,17.20
2018-11-02T19:51:30.666Z,15.32
2018-11-02T19:56:24.376Z,16.12
2018-11-02T20:01:18.498Z,18.98
2018-11-02T20:06:12.754Z,15.15
2018-11-02T20:11:08.352Z,12.03
2018-11-02T20:16:03.230Z,12.93
2018-11-02T20:20:56.839Z,14.10
2018-11-02T20:25:51.436Z,14.33
2018-11-02T20:30:45.102Z,14.63
2018-11-02T20:35:39.634Z,16.85
2018-11-02T20:40:33.407Z,15.05
2018-11-02T20:45:28.431Z,14.60
2018-11-02T20:50:22.087Z,14.38
2018-11-02T20:55:16.222Z,13.40
2018-11-02T21:00:12.902Z,15.63
2018-11-02T21:05:12.659Z,17.50
2018-11-02T21:10:08.436Z,14.13
2018-11-02T21:15:03.176Z,14.03
2018-11-02T21:19:56.646Z,13.08
2018-11-02T21:24:51.480Z,13.85
2018-11-02T21:29:45.209Z,13.10
2018-11-02T21:34:39.393Z,12.47
2018-11-02T21:39:33.432Z,13.20
2018-11-02T21:44:27.541Z,13.75
2018-11-02T21:49:20.922Z,12.78
2018-11-02T21:54:14.526Z,12.35
2018-11-02T21:59:08.631Z,13.43
2018-11-02T22:04:02.543Z,12.78
2018-11-02T22:08:55.844Z,13.65
2018-11-02T22:13:49.087Z,13.32
2018-11-02T22:18:43.247Z,13.62
2018-11-02T22:23:36.563Z,14.80
2018-11-02T22:28:30.332Z,15.68
2018-11-02T22:33:23.617Z,14.80
2018-11-02T22:38:17.864Z,12.15
2018-11-02T22:43:11.416Z,14.58
2018-11-02T22:48:10.115Z,14.30
2018-11-02T22:53:03.307Z,14.55
2018-11-02T22:57:58.487Z,15.08
2018-11-02T23:02:51.759Z,10.85
2018-11-02T23:07:45.480Z,11.00
2018-11-02T23:12:38.969Z,11.00
2018-11-02T23:17:33.235Z,10.85
2018-11-02T23:22:26.542Z,11.88
2018-11-02T23:27:19.859Z,10.32
2018-11-02T23:32:13.175Z,10.13
2018-11-02T23:37:06.413Z,10.63
2018-11-02T23:41:59.738Z,10.85
2018-11-02T23:46:52.973Z,12.03
2018-11-02T23:51:46.204Z,11.33
2018-11-02T23:56:39.453Z,11.78
